createdAt,value
2022-10-31T00:00:50.617Z,9.70
2022-10-31T00:03:19.255Z,9.70
2022-10-31T00:05:49.191Z,9.70
2022-10-31T00:08:17.763Z,9.70
2022-10-31T00:10:47.241Z,9.70
2022-10-31T00:13:16.320Z,9.80
2022-10-31T00:15:45.769Z,9.80
2022-10-31T00:18:13.778Z,9.80
2022-10-31T00:20:42.067Z,9.70
2022-10-31T00:23:11.210Z,9.70
2022-10-31T00:25:41.115Z,9.70
2022-10-31T00:28:11.788Z,9.70
2022-10-31T00:30:39.898Z,9.70
2022-10-31T00:33:09.845Z,9.70
2022-10-31T00:35:38.565Z,9.70
2022-10-31T00:38:06.560Z,9.70
2022-10-31T00:40:35.165Z,9.70
2022-10-31T00:43:03.704Z,9.70
2022-10-31T00:45:33.284Z,9.70
2022-10-31T00:48:02.414Z,9.70
2022-10-31T00:50:32.607Z,9.70
2022-10-31T00:53:01.893Z,9.70
2022-10-31T00:55:30.180Z,9.80
2022-10-31T00:57:58.840Z,9.80
2022-10-31T01:00:27.647Z,9.80
2022-10-31T01:02:55.770Z,9.80
2022-10-31T01:05:24.006Z,9.90
2022-10-31T01:07:53.292Z,9.90
2022-10-31T01:10:21.390Z,9.90
2022-10-31T01:12:51.188Z,10.00
2022-10-31T01:15:21.738Z,10.00
2022-10-31T01:17:50.377Z,10.10
2022-10-31T01:20:18.812Z,10.10
2022-10-31T01:22:47.247Z,10.10
2022-10-31T01:25:16.577Z,10.10
2022-10-31T01:27:44.526Z,10.10
2022-10-31T01:30:13.523Z,10.20
2022-10-31T01:32:41.425Z,10.20
2022-10-31T01:35:09.644Z,10.20
2022-10-31T01:37:37.642Z,10.30
2022-10-31T01:40:06.665Z,10.30
2022-10-31T01:42:35.985Z,10.30
2022-10-31T01:45:06.303Z,10.30
2022-10-31T01:47:42.845Z,10.30
2022-10-31T01:50:21.164Z,10.30
2022-10-31T01:52:52.770Z,10.30
2022-10-31T01:55:27.680Z,10.30
2022-10-31T01:58:04.107Z,10.30
2022-10-31T02:00:32.894Z,10.30
2022-10-31T02:03:01.580Z,10.30
2022-10-31T02:05:31.698Z,10.40
2022-10-31T02:08:04.771Z,10.40
2022-10-31T02:10:35.234Z,10.40
2022-10-31T02:13:07.337Z,10.50
2022-10-31T02:15:39.536Z,10.40
2022-10-31T02:18:09.048Z,10.50
2022-10-31T02:20:58.632Z,10.50
2022-10-31T02:23:55.759Z,10.50
2022-10-31T02:26:40.233Z,10.50
2022-10-31T02:29:24.500Z,10.50
2022-10-31T02:32:00.478Z,10.50
2022-10-31T02:34:35.116Z,10.50
2022-10-31T02:37:10.902Z,10.50
2022-10-31T02:39:45.626Z,10.50
2022-10-31T02:42:24.389Z,10.40
2022-10-31T02:45:02.804Z,10.40
2022-10-31T02:47:37.193Z,10.40
2022-10-31T02:50:10.737Z,10.40
2022-10-31T02:52:40.826Z,10.50
2022-10-31T02:55:14.046Z,10.50
2022-10-31T02:57:44.852Z,10.50
2022-10-31T03:00:13.665Z,10.50
2022-10-31T03:03:06.411Z,10.50
2022-10-31T03:05:50.496Z,10.50
2022-10-31T03:08:25.713Z,10.50
2022-10-31T03:10:58.217Z,10.40
2022-10-31T03:13:34.490Z,10.50
2022-10-31T03:16:11.627Z,10.50
2022-10-31T03:18:45.937Z,10.50
2022-10-31T03:21:16.863Z,10.50
2022-10-31T03:23:48.181Z,10.50
2022-10-31T03:26:23.162Z,10.50
2022-10-31T03:28:55.742Z,10.50
2022-10-31T03:31:28.743Z,10.50
2022-10-31T03:34:00.582Z,10.50
2022-10-31T03:36:34.238Z,10.50
2022-10-31T03:39:04.629Z,10.50
2022-10-31T03:41:37.763Z,10.50
2022-10-31T03:44:12.872Z,10.50
2022-10-31T03:46:43.659Z,10.50
2022-10-31T03:49:13.897Z,10.50
2022-10-31T03:51:47.908Z,10.50
2022-10-31T03:54:24.029Z,10.50
2022-10-31T03:56:56.650Z,10.50
2022-10-31T03:59:28.685Z,10.50
2022-10-31T04:02:03.244Z,10.40
2022-10-31T04:04:35.619Z,10.40
2022-10-31T04:07:05.278Z,10.40
2022-10-31T04:09:37.300Z,10.40
2022-10-31T04:12:10.037Z,10.50
2022-10-31T04:14:56.870Z,10.50
2022-10-31T04:17:28.675Z,10.50
2022-10-31T04:20:01.155Z,10.50
2022-10-31T04:22:30.466Z,10.50
2022-10-31T04:24:58.539Z,10.50
2022-10-31T04:27:28.132Z,10.50
2022-10-31T04:29:56.116Z,10.50
2022-10-31T04:32:24.232Z,10.50
2022-10-31T04:34:54.240Z,10.50
2022-10-31T04:37:23.710Z,10.50
2022-10-31T04:39:51.722Z,10.50
2022-10-31T04:42:38.504Z,10.50
2022-10-31T04:45:08.429Z,10.50
2022-10-31T04:47:37.749Z,10.50
2022-10-31T04:50:06.429Z,10.50
2022-10-31T04:52:42.587Z,10.60
2022-10-31T04:55:13.639Z,10.50
2022-10-31T04:58:00.548Z,10.60
2022-10-31T05:00:29.056Z,10.60
2022-10-31T05:02:59.939Z,10.60
2022-10-31T05:05:31.584Z,10.60
2022-10-31T05:08:04.183Z,10.60
2022-10-31T05:10:33.762Z,10.60
2022-10-31T05:13:04.905Z,10.60
2022-10-31T05:15:51.903Z,10.60
2022-10-31T05:18:39.073Z,10.60
2022-10-31T05:21:13.238Z,10.60
2022-10-31T05:23:49.130Z,10.60
2022-10-31T05:26:17.882Z,10.60
2022-10-31T05:28:46.350Z,10.50
2022-10-31T05:31:14.476Z,10.50
2022-10-31T05:33:43.737Z,10.50
2022-10-31T05:36:47.101Z,10.50
2022-10-31T05:39:20.685Z,10.50
2022-10-31T05:41:51.358Z,10.40
2022-10-31T05:44:26.921Z,10.40
2022-10-31T05:47:07.445Z,10.30
2022-10-31T05:49:55.692Z,10.30
2022-10-31T05:52:47.535Z,10.20
2022-10-31T05:55:23.894Z,10.30
2022-10-31T05:58:05.015Z,10.30
2022-10-31T06:00:35.959Z,10.30
2022-10-31T06:03:10.432Z,10.20
2022-10-31T06:05:50.836Z,10.20
2022-10-31T06:08:23.562Z,10.20
2022-10-31T06:10:54.725Z,10.20
2022-10-31T06:13:35.063Z,10.20
2022-10-31T06:16:15.051Z,10.10
2022-10-31T06:18:44.553Z,10.10
2022-10-31T06:21:16.401Z,10.10
2022-10-31T06:23:47.172Z,10.10
2022-10-31T06:26:34.977Z,10.20
2022-10-31T06:29:04.386Z,10.20
2022-10-31T06:31:53.269Z,10.20
2022-10-31T06:34:21.385Z,10.20
2022-10-31T06:36:49.836Z,10.20
2022-10-31T06:39:20.456Z,10.20
2022-10-31T06:41:50.936Z,10.20
2022-10-31T06:44:21.972Z,10.20
2022-10-31T06:46:55.777Z,10.20
2022-10-31T06:49:40.188Z,10.20
2022-10-31T06:52:14.831Z,10.20
2022-10-31T06:54:43.139Z,10.30
2022-10-31T06:57:12.544Z,10.20
2022-10-31T06:59:41.094Z,10.30
2022-10-31T07:02:26.842Z,10.30
2022-10-31T07:04:54.999Z,10.30
2022-10-31T07:07:24.311Z,10.40
2022-10-31T07:09:52.836Z,10.40
2022-10-31T07:12:28.955Z,10.40
2022-10-31T07:14:59.853Z,10.50
2022-10-31T07:17:30.079Z,10.50
2022-10-31T07:20:01.085Z,10.50
2022-10-31T07:22:35.532Z,10.60
2022-10-31T07:25:06.416Z,10.60
2022-10-31T07:27:55.723Z,10.70
2022-10-31T07:30:23.909Z,10.70
2022-10-31T07:32:56.332Z,10.70
2022-10-31T07:35:28.177Z,10.80
2022-10-31T07:38:00.591Z,10.80
2022-10-31T07:40:29.275Z,10.90
2022-10-31T07:43:00.223Z,10.90
2022-10-31T07:45:54.533Z,11.00
2022-10-31T07:49:00.894Z,11.10
2022-10-31T07:51:48.586Z,11.20
2022-10-31T07:54:35.027Z,11.30
2022-10-31T07:57:03.063Z,11.30
2022-10-31T07:59:32.397Z,11.40
2022-10-31T08:02:01.778Z,11.50
2022-10-31T08:04:33.113Z,11.50
2022-10-31T08:07:19.946Z,11.50
2022-10-31T08:09:55.818Z,11.60
2022-10-31T08:12:27.661Z,11.60
2022-10-31T08:14:57.291Z,11.70
2022-10-31T08:17:25.346Z,11.70
2022-10-31T08:19:57.710Z,11.80
2022-10-31T08:22:42.784Z,11.90
2022-10-31T08:25:12.120Z,12.00
2022-10-31T08:27:40.868Z,12.00
2022-10-31T08:30:18.782Z,12.10
2022-10-31T08:33:05.250Z,12.10
2022-10-31T08:35:51.730Z,12.20
2022-10-31T08:38:45.120Z,12.30
2022-10-31T08:41:14.642Z,12.40
2022-10-31T08:43:42.911Z,12.50
2022-10-31T08:46:12.851Z,12.50
2022-10-31T08:48:42.563Z,12.60
2022-10-31T08:51:12.283Z,12.70
2022-10-31T08:53:40.391Z,12.80
2022-10-31T08:56:28.653Z,12.80
2022-10-31T08:58:56.844Z,12.90
2022-10-31T09:01:36.514Z,12.90
2022-10-31T09:04:07.154Z,13.00
2022-10-31T09:06:35.155Z,13.00
2022-10-31T09:09:03.156Z,13.10
2022-10-31T09:11:32.439Z,13.30
2022-10-31T09:14:12.181Z,13.40
2022-10-31T09:16:41.581Z,13.40
2022-10-31T09:19:16.401Z,13.50
2022-10-31T09:21:47.637Z,13.60
2022-10-31T09:24:15.838Z,13.60
2022-10-31T09:26:44.533Z,13.70
2022-10-31T09:29:18.860Z,13.80
2022-10-31T09:31:52.233Z,13.90
2022-10-31T09:34:35.414Z,14.00
2022-10-31T09:37:14.673Z,14.10
2022-10-31T09:39:42.649Z,14.20
2022-10-31T09:42:54.883Z,14.30
2022-10-31T09:45:30.796Z,14.40
2022-10-31T09:48:28.191Z,14.50
2022-10-31T09:51:18.682Z,14.60
2022-10-31T09:53:56.634Z,14.70
2022-10-31T09:56:27.716Z,14.80
2022-10-31T09:59:01.731Z,14.80
2022-10-31T10:01:41.429Z,14.90
2022-10-31T10:04:38.354Z,15.00
2022-10-31T10:07:24.523Z,15.10
2022-10-31T10:09:55.684Z,15.20
2022-10-31T10:13:25.207Z,15.20
2022-10-31T10:16:11.330Z,15.30
2022-10-31T10:18:49.081Z,15.30
2022-10-31T10:21:27.965Z,15.40
2022-10-31T10:24:10.937Z,15.50
2022-10-31T10:26:43.672Z,15.50
2022-10-31T10:29:26.759Z,15.60
2022-10-31T10:31:57.205Z,15.60
2022-10-31T10:34:29.701Z,15.70
2022-10-31T10:37:03.462Z,15.80
2022-10-31T10:39:35.043Z,15.90
2022-10-31T10:42:27.541Z,16.00
2022-10-31T10:45:13.481Z,16.10
2022-10-31T10:47:44.781Z,16.00
2022-10-31T10:50:19.524Z,16.10
2022-10-31T10:53:00.824Z,16.20
2022-10-31T10:55:38.548Z,16.30
2022-10-31T10:58:11.079Z,16.30
2022-10-31T11:00:42.311Z,16.30
2022-10-31T11:03:11.327Z,16.40
2022-10-31T11:05:45.840Z,16.40
2022-10-31T11:08:27.582Z,16.50
2022-10-31T11:11:02.895Z,16.60
2022-10-31T11:13:32.423Z,16.60
2022-10-31T11:16:03.772Z,16.50
2022-10-31T11:18:33.959Z,16.60
2022-10-31T11:21:05.321Z,16.50
2022-10-31T11:23:35.482Z,16.50
2022-10-31T11:26:05.878Z,16.40
2022-10-31T11:28:36.308Z,16.40
2022-10-31T11:31:09.293Z,16.30
2022-10-31T11:33:39.793Z,16.30
2022-10-31T11:36:20.269Z,16.30
2022-10-31T11:38:50.806Z,16.30
2022-10-31T11:41:20.592Z,16.40
2022-10-31T11:43:52.443Z,16.40
2022-10-31T11:46:24.754Z,16.50
2022-10-31T11:48:55.399Z,16.50
2022-10-31T11:51:25.504Z,16.60
2022-10-31T11:54:22.917Z,16.60
2022-10-31T11:56:52.936Z,16.60
2022-10-31T11:59:27.390Z,16.60
2022-10-31T12:01:56.775Z,16.50
2022-10-31T12:04:36.105Z,16.60
2022-10-31T12:07:04.582Z,16.60
2022-10-31T12:09:36.372Z,16.60
2022-10-31T12:12:32.856Z,16.70
2022-10-31T12:15:13.454Z,16.70
2022-10-31T12:17:51.346Z,16.80
2022-10-31T12:20:26.453Z,16.90
2022-10-31T12:23:04.426Z,16.90
2022-10-31T12:25:44.346Z,16.90
2022-10-31T12:28:31.160Z,16.80
2022-10-31T12:31:13.060Z,16.90
2022-10-31T12:33:54.001Z,17.00
2022-10-31T12:36:31.736Z,17.10
2022-10-31T12:39:20.764Z,17.20
2022-10-31T12:41:54.910Z,17.30
2022-10-31T12:44:59.801Z,17.40
2022-10-31T12:47:56.243Z,17.50
2022-10-31T12:50:33.707Z,17.50
2022-10-31T12:53:14.971Z,17.60
2022-10-31T12:55:56.679Z,17.70
2022-10-31T12:58:30.225Z,17.90
2022-10-31T13:01:08.220Z,18.00
2022-10-31T13:03:44.720Z,18.10
2022-10-31T13:06:20.300Z,18.20
2022-10-31T13:08:54.408Z,18.30
2022-10-31T13:11:26.646Z,18.40
2022-10-31T13:14:03.112Z,18.40
2022-10-31T13:16:35.308Z,18.30
2022-10-31T13:19:10.772Z,18.40
2022-10-31T13:21:43.461Z,18.40
2022-10-31T13:24:15.912Z,18.40
2022-10-31T13:26:48.615Z,18.40
2022-10-31T13:29:23.815Z,18.50
2022-10-31T13:31:53.876Z,18.70
2022-10-31T13:34:29.796Z,18.80
2022-10-31T13:37:08.088Z,18.80
2022-10-31T13:39:51.715Z,18.80
2022-10-31T13:42:25.878Z,18.70
2022-10-31T13:44:55.340Z,18.70
2022-10-31T13:47:26.483Z,18.60
2022-10-31T13:50:06.352Z,18.50
2022-10-31T13:52:34.380Z,18.40
2022-10-31T13:55:02.476Z,18.20
2022-10-31T13:57:35.036Z,18.10
2022-10-31T14:00:23.466Z,18.00
2022-10-31T14:02:53.945Z,17.80
2022-10-31T14:05:27.787Z,17.80
2022-10-31T14:07:57.842Z,17.80
2022-10-31T14:10:29.879Z,17.80
2022-10-31T14:13:07.737Z,17.70
2022-10-31T14:15:40.130Z,17.60
2022-10-31T14:18:26.309Z,17.60
2022-10-31T14:20:58.265Z,17.70
2022-10-31T14:23:41.078Z,17.70
2022-10-31T14:26:35.446Z,17.60
2022-10-31T14:29:22.327Z,17.60
2022-10-31T14:31:58.051Z,17.40
2022-10-31T14:34:29.945Z,17.40
2022-10-31T14:37:36.676Z,17.40
2022-10-31T14:40:20.637Z,17.40
2022-10-31T14:43:17.241Z,17.30
2022-10-31T14:45:51.635Z,17.20
2022-10-31T14:48:38.020Z,17.10
2022-10-31T14:51:12.338Z,16.90
2022-10-31T14:53:48.073Z,16.90
2022-10-31T14:56:22.482Z,16.80
2022-10-31T14:58:51.460Z,16.80
2022-10-31T15:01:25.992Z,16.60
2022-10-31T15:04:21.663Z,16.50
2022-10-31T15:06:48.419Z,16.50
2022-10-31T15:09:24.510Z,16.50
2022-10-31T15:11:52.717Z,16.40
2022-10-31T15:14:25.924Z,16.30
2022-10-31T15:16:54.303Z,16.20
2022-10-31T15:19:27.128Z,16.10
2022-10-31T15:21:56.744Z,16.10
2022-10-31T15:24:27.383Z,16.00
2022-10-31T15:26:59.666Z,16.00
2022-10-31T15:29:30.606Z,16.00
2022-10-31T15:32:00.534Z,16.00
2022-10-31T15:34:37.141Z,15.90
2022-10-31T15:37:05.525Z,15.90
2022-10-31T15:39:34.321Z,15.90
2022-10-31T15:42:02.652Z,15.80
2022-10-31T15:44:33.739Z,15.70
2022-10-31T15:47:06.227Z,15.60
2022-10-31T15:49:38.045Z,15.50
2022-10-31T15:52:16.428Z,15.40
2022-10-31T15:54:49.296Z,15.40
2022-10-31T15:57:18.093Z,15.40
2022-10-31T15:59:49.588Z,15.30
2022-10-31T16:02:23.304Z,15.30
2022-10-31T16:04:56.777Z,15.30
2022-10-31T16:07:25.589Z,15.20
2022-10-31T16:09:56.827Z,15.20
2022-10-31T16:12:26.969Z,15.20
2022-10-31T16:14:56.965Z,15.10
2022-10-31T16:17:28.546Z,15.10
2022-10-31T16:20:00.874Z,15.00
2022-10-31T16:22:32.301Z,14.90
2022-10-31T16:25:06.871Z,14.90
2022-10-31T16:27:37.026Z,14.80
2022-10-31T16:30:21.135Z,14.70
2022-10-31T16:32:56.696Z,14.60
2022-10-31T16:35:29.872Z,14.60
2022-10-31T16:37:57.848Z,14.50
2022-10-31T16:40:26.342Z,14.50
2022-10-31T16:42:54.789Z,14.40
2022-10-31T16:45:24.914Z,14.40
2022-10-31T16:47:53.579Z,14.30
2022-10-31T16:50:24.561Z,14.30
2022-10-31T16:53:12.967Z,14.20
2022-10-31T16:55:46.685Z,14.20
2022-10-31T16:58:22.022Z,14.10
2022-10-31T17:00:50.196Z,14.00
2022-10-31T17:03:18.370Z,13.90
2022-10-31T17:05:46.321Z,13.90
2022-10-31T17:08:16.130Z,13.90
2022-10-31T17:10:47.801Z,13.80
2022-10-31T17:13:19.987Z,13.80
2022-10-31T17:15:50.758Z,13.70
2022-10-31T17:18:22.921Z,13.70
2022-10-31T17:20:59.403Z,13.70
2022-10-31T17:23:29.878Z,13.60
2022-10-31T17:25:58.110Z,13.60
2022-10-31T17:28:26.478Z,13.50
2022-10-31T17:30:56.066Z,13.50
2022-10-31T17:33:24.786Z,13.50
2022-10-31T17:35:52.733Z,13.50
2022-10-31T17:38:21.081Z,13.40
2022-10-31T17:40:50.352Z,13.40
2022-10-31T17:43:18.794Z,13.40
2022-10-31T17:45:47.061Z,13.40
2022-10-31T17:48:15.033Z,13.30
2022-10-31T17:50:43.201Z,13.30
2022-10-31T17:53:11.187Z,13.20
2022-10-31T17:55:39.137Z,13.20
2022-10-31T17:58:08.479Z,13.10
2022-10-31T18:00:36.476Z,13.10
2022-10-31T18:03:04.887Z,13.00
2022-10-31T18:05:33.105Z,13.00
2022-10-31T18:08:04.233Z,12.90
2022-10-31T18:10:32.623Z,12.90
2022-10-31T18:13:00.964Z,12.80
2022-10-31T18:15:30.572Z,12.70
2022-10-31T18:17:58.833Z,12.70
2022-10-31T18:20:27.071Z,12.60
2022-10-31T18:22:55.124Z,12.60
2022-10-31T18:25:23.064Z,12.50
2022-10-31T18:27:51.151Z,12.50
2022-10-31T18:30:19.275Z,12.40
2022-10-31T18:32:50.379Z,12.40
2022-10-31T18:35:18.638Z,12.30
2022-10-31T18:37:46.651Z,12.30
2022-10-31T18:40:14.738Z,12.30
2022-10-31T18:42:42.871Z,12.20
2022-10-31T18:45:31.184Z,12.10
2022-10-31T18:48:01.631Z,12.10
2022-10-31T18:50:33.334Z,12.10
2022-10-31T18:53:03.200Z,12.00
2022-10-31T18:55:31.446Z,12.00
2022-10-31T18:57:59.336Z,11.90
2022-10-31T19:00:27.319Z,11.90
2022-10-31T19:02:57.468Z,11.90
2022-10-31T19:05:26.922Z,11.90
2022-10-31T19:07:54.887Z,11.80
2022-10-31T19:10:22.881Z,11.70
2022-10-31T19:12:50.920Z,11.60
2022-10-31T19:15:19.492Z,11.50
2022-10-31T19:17:47.721Z,11.50
2022-10-31T19:20:15.843Z,11.50
2022-10-31T19:22:45.279Z,11.50
2022-10-31T19:25:13.470Z,11.40
2022-10-31T19:27:41.586Z,11.40
2022-10-31T19:30:10.963Z,11.40
2022-10-31T19:32:39.304Z,11.30
2022-10-31T19:35:09.194Z,11.30
2022-10-31T19:37:37.493Z,11.30
2022-10-31T19:40:09.576Z,11.30
2022-10-31T19:42:37.546Z,11.20
2022-10-31T19:45:06.331Z,11.20
2022-10-31T19:47:34.667Z,11.10
2022-10-31T19:50:04.964Z,11.10
2022-10-31T19:52:35.687Z,11.10
2022-10-31T19:55:03.997Z,11.00
2022-10-31T19:57:56.612Z,11.00
2022-10-31T20:00:25.060Z,10.90
2022-10-31T20:02:53.000Z,10.90
2022-10-31T20:05:20.979Z,10.90
2022-10-31T20:07:48.910Z,10.90
2022-10-31T20:10:17.699Z,10.90
2022-10-31T20:12:47.045Z,10.90
2022-10-31T20:15:15.089Z,10.80
2022-10-31T20:17:43.706Z,10.80
2022-10-31T20:20:12.313Z,10.80
2022-10-31T20:22:40.428Z,10.80
2022-10-31T20:25:08.962Z,10.70
2022-10-31T20:27:36.926Z,10.60
2022-10-31T20:30:07.526Z,10.60
2022-10-31T20:32:35.513Z,10.50
2022-10-31T20:35:03.901Z,10.50
2022-10-31T20:37:31.952Z,10.50
2022-10-31T20:40:00.046Z,10.60
2022-10-31T20:42:28.234Z,10.50
2022-10-31T20:44:56.555Z,10.50
2022-10-31T20:47:26.022Z,10.60
2022-10-31T20:49:54.094Z,10.60
2022-10-31T20:52:22.138Z,10.60
2022-10-31T20:54:50.197Z,10.60
2022-10-31T20:57:18.080Z,10.60
2022-10-31T20:59:46.085Z,10.60
2022-10-31T21:02:14.193Z,10.50
2022-10-31T21:04:43.767Z,10.50
2022-10-31T21:07:11.749Z,10.50
2022-10-31T21:09:39.754Z,10.50
2022-10-31T21:12:08.039Z,10.50
2022-10-31T21:14:36.454Z,10.40
2022-10-31T21:17:04.594Z,10.40
2022-10-31T21:19:33.376Z,10.40
2022-10-31T21:22:02.835Z,10.40
2022-10-31T21:24:31.697Z,10.30
2022-10-31T21:27:01.181Z,10.30
2022-10-31T21:29:30.879Z,10.30
2022-10-31T21:31:58.744Z,10.20
2022-10-31T21:34:26.691Z,10.20
2022-10-31T21:36:54.905Z,10.20
2022-10-31T21:39:24.283Z,10.20
2022-10-31T21:41:52.209Z,10.10
2022-10-31T21:44:20.342Z,10.10
2022-10-31T21:46:48.607Z,10.10
2022-10-31T21:49:16.708Z,10.10
2022-10-31T21:51:46.725Z,10.20
2022-10-31T21:54:30.291Z,10.20
2022-10-31T21:57:00.884Z,10.20
2022-10-31T21:59:29.145Z,10.20
2022-10-31T22:01:58.330Z,10.20
2022-10-31T22:04:26.465Z,10.20
2022-10-31T22:06:55.204Z,10.20
2022-10-31T22:09:23.720Z,10.20
2022-10-31T22:11:52.411Z,10.10
2022-10-31T22:14:21.835Z,10.10
2022-10-31T22:16:49.920Z,10.10
2022-10-31T22:19:17.803Z,10.10
2022-10-31T22:21:48.728Z,10.10
2022-10-31T22:24:17.768Z,10.10
2022-10-31T22:26:49.034Z,10.10
2022-10-31T22:29:18.755Z,10.10
2022-10-31T22:31:53.425Z,10.10
2022-10-31T22:34:25.373Z,10.10
2022-10-31T22:36:55.806Z,10.20
2022-10-31T22:39:23.769Z,10.10
2022-10-31T22:41:52.022Z,10.20
2022-10-31T22:44:19.946Z,10.20
2022-10-31T22:46:49.472Z,10.20
2022-10-31T22:49:17.788Z,10.20
2022-10-31T22:51:46.392Z,10.20
2022-10-31T22:54:18.567Z,10.10
2022-10-31T22:56:46.789Z,10.10
2022-10-31T22:59:16.659Z,10.10
2022-10-31T23:01:45.980Z,10.10
2022-10-31T23:04:17.031Z,10.10
2022-10-31T23:06:45.517Z,10.10
2022-10-31T23:09:16.146Z,10.20
2022-10-31T23:11:44.495Z,10.20
2022-10-31T23:14:16.693Z,10.20
2022-10-31T23:16:46.953Z,10.20
2022-10-31T23:19:17.956Z,10.20
2022-10-31T23:21:57.645Z,10.20
2022-10-31T23:24:32.950Z,10.20
2022-10-31T23:27:10.791Z,10.20
2022-10-31T23:29:44.743Z,10.20
2022-10-31T23:32:16.751Z,10.30
2022-10-31T23:34:47.035Z,10.30
2022-10-31T23:37:16.650Z,10.30
2022-10-31T23:39:45.004Z,10.40
2022-10-31T23:42:13.779Z,10.40
2022-10-31T23:44:41.973Z,10.40
2022-10-31T23:47:10.215Z,10.50
2022-10-31T23:49:38.302Z,10.60
2022-10-31T23:52:08.726Z,10.60
2022-10-31T23:54:37.338Z,10.70
2022-10-31T23:57:29.453Z,10.80
